Time;durP1;ratioP1;P1;durP2;ratioP2;P2;SDS_P1;SDS_P2;PMS_P1;PMS_P2;Temp;Humidity;BMP_temperature;BMP_pressure;BME280_temperature;BME280_humidity;BME280_pressure;Samples;Min_cycle;Max_cycle;Signal;HPM_P1;HPM_P2
2023/04/01 00:01:00;;;;;;;;;;;15.30;66.00;;;;;;5033548;28;19917;-59
2023/04/01 00:03:26;;;;;;;;;;;15.30;66.20;;;;;;5033456;28;19918;-60
2023/04/01 00:05:52;;;;;;;;;;;15.30;66.00;;;;;;5033377;28;20328;-60
2023/04/01 00:08:18;;;;;;;;;;;15.40;65.90;;;;;;5033408;28;19952;-60
2023/04/01 00:10:43;;;;;;;;;;;15.40;66.00;;;;;;5033275;28;19917;-60
2023/04/01 00:13:09;;;;;;;;;;;15.40;65.80;;;;;;5033489;28;19913;-60
2023/04/01 00:15:35;;;;;;;;;;;15.40;65.70;;;;;;5033462;28;19921;-61
2023/04/01 00:18:00;;;;;;;;;;;15.40;65.80;;;;;;5033139;28;19913;-61
2023/04/01 00:20:26;;;;;;;;;;;15.40;65.70;;;;;;5033015;28;19913;-61
2023/04/01 00:22:52;;;;;;;;;;;15.40;65.80;;;;;;5032875;28;19924;-61
2023/04/01 00:25:18;;;;;;;;;;;15.40;65.70;;;;;;5032883;28;20007;-60
2023/04/01 00:27:43;;;;;;;;;;;15.40;65.80;;;;;;5026835;28;20014;-60
2023/04/01 00:30:09;;;;;;;;;;;15.30;65.90;;;;;;5013477;28;20346;-60
2023/04/01 00:32:35;;;;;;;;;;;15.30;65.80;;;;;;5026295;28;20380;-60
2023/04/01 00:35:01;;;;;;;;;;;15.30;65.80;;;;;;5033670;28;19921;-60
2023/04/01 00:37:27;;;;;;;;;;;15.30;65.90;;;;;;5020881;28;20425;-60
2023/04/01 00:39:53;;;;;;;;;;;15.20;65.90;;;;;;5017614;28;19921;-60
2023/04/01 00:42:18;;;;;;;;;;;15.20;65.90;;;;;;5020044;28;20005;-60
2023/04/01 00:44:51;;;;;;;;;;;15.20;65.90;;;;;;5012847;28;19964;-60
2023/04/01 00:47:17;;;;;;;;;;;15.20;65.90;;;;;;5020447;28;19917;-60
2023/04/01 00:49:44;;;;;;;;;;;15.20;66.00;;;;;;5031123;28;20329;-60
2023/04/01 00:52:12;;;;;;;;;;;15.20;66.00;;;;;;5029913;28;19914;-60
2023/04/01 00:54:38;;;;;;;;;;;15.10;66.10;;;;;;5027284;28;19971;-60
2023/04/01 00:57:13;;;;;;;;;;;15.10;66.10;;;;;;5030753;28;20324;-60
2023/04/01 00:59:45;;;;;;;;;;;15.10;66.00;;;;;;5031739;28;19924;-60
2023/04/01 01:02:12;;;;;;;;;;;15.10;66.00;;;;;;5016689;28;20312;-60
2023/04/01 01:04:38;;;;;;;;;;;15.10;65.90;;;;;;5021525;28;19925;-60
2023/04/01 01:07:06;;;;;;;;;;;15.10;66.00;;;;;;5031472;28;19920;-59
2023/04/01 01:09:41;;;;;;;;;;;15.20;65.90;;;;;;5028847;28;19990;-60
2023/04/01 01:12:10;;;;;;;;;;;15.10;66.00;;;;;;5027933;28;20316;-60
2023/04/01 01:14:36;;;;;;;;;;;15.10;65.90;;;;;;5015735;28;20017;-60
2023/04/01 01:17:24;;;;;;;;;;;15.10;65.90;;;;;;5024578;28;19914;-60
2023/04/01 01:20:01;;;;;;;;;;;15.20;65.90;;;;;;5024636;28;19928;-59
2023/04/01 01:22:44;;;;;;;;;;;15.20;65.90;;;;;;5030116;28;20372;-59
2023/04/01 01:25:09;;;;;;;;;;;15.20;65.90;;;;;;5031989;28;19913;-59
2023/04/01 01:27:37;;;;;;;;;;;15.20;66.00;;;;;;5030595;28;20004;-60
2023/04/01 01:30:22;;;;;;;;;;;15.20;66.00;;;;;;5015975;28;20364;-60
2023/04/01 01:32:50;;;;;;;;;;;15.20;65.90;;;;;;5031774;28;19918;-60
2023/04/01 01:35:25;;;;;;;;;;;15.10;66.00;;;;;;5038962;28;19917;-60
2023/04/01 01:37:53;;;;;;;;;;;15.10;66.00;;;;;;5012131;28;19983;-60
2023/04/01 01:40:20;;;;;;;;;;;15.10;66.00;;;;;;5011382;28;20000;-60
2023/04/01 01:42:48;;;;;;;;;;;15.10;65.90;;;;;;5026877;28;19917;-60
2023/04/01 01:45:17;;;;;;;;;;;15.10;65.90;;;;;;5011627;28;20377;-60
2023/04/01 01:47:43;;;;;;;;;;;15.20;65.90;;;;;;5012058;28;19991;-60
2023/04/01 01:50:09;;;;;;;;;;;15.20;65.90;;;;;;5031523;28;19964;-60
2023/04/01 01:52:35;;;;;;;;;;;15.10;65.90;;;;;;5047530;28;19917;-60
2023/04/01 01:55:00;;;;;;;;;;;15.20;65.80;;;;;;5051225;28;19916;-60
2023/04/01 01:57:31;;;;;;;;;;;15.20;65.80;;;;;;5051452;28;20288;-60
2023/04/01 01:59:59;;;;;;;;;;;15.20;65.80;;;;;;5051469;28;19959;-60
2023/04/01 02:02:25;;;;;;;;;;;15.10;65.90;;;;;;5051143;28;19917;-60
2023/04/01 02:04:52;;;;;;;;;;;15.10;65.90;;;;;;5051109;28;20253;-62
2023/04/01 02:07:23;;;;;;;;;;;15.10;65.90;;;;;;5051572;28;20311;-60
2023/04/01 02:09:49;;;;;;;;;;;15.10;66.00;;;;;;5051097;28;20252;-60
2023/04/01 02:12:16;;;;;;;;;;;15.00;65.80;;;;;;5051564;28;19999;-60
2023/04/01 02:14:51;;;;;;;;;;;15.10;65.80;;;;;;5051401;28;20287;-60
2023/04/01 02:17:18;;;;;;;;;;;15.00;65.80;;;;;;5051324;28;19913;-60
2023/04/01 02:19:49;;;;;;;;;;;15.00;65.80;;;;;;5050927;28;19974;-59
2023/04/01 02:22:18;;;;;;;;;;;14.90;65.70;;;;;;5036826;28;20018;-59
2023/04/01 02:24:45;;;;;;;;;;;15.00;65.70;;;;;;5030974;28;19921;-59
2023/04/01 02:27:10;;;;;;;;;;;15.00;65.70;;;;;;5025363;28;19914;-69
2023/04/01 02:29:36;;;;;;;;;;;14.90;65.80;;;;;;5017257;28;19924;-59
2023/04/01 02:32:02;;;;;;;;;;;14.90;65.90;;;;;;5029845;28;20023;-60
2023/04/01 02:34:27;;;;;;;;;;;14.90;65.90;;;;;;5029895;28;19917;-60
2023/04/01 02:36:54;;;;;;;;;;;14.90;65.90;;;;;;5036204;28;19996;-59
2023/04/01 02:39:20;;;;;;;;;;;14.90;66.00;;;;;;5029042;28;19921;-60
2023/04/01 02:41:46;;;;;;;;;;;14.90;65.90;;;;;;5019847;28;20396;-59
2023/04/01 02:44:12;;;;;;;;;;;14.90;65.90;;;;;;5023607;28;20369;-59
2023/04/01 02:46:37;;;;;;;;;;;14.90;65.90;;;;;;5030248;28;19920;-60
2023/04/01 02:49:03;;;;;;;;;;;14.80;66.00;;;;;;5028704;28;20300;-60
2023/04/01 02:51:29;;;;;;;;;;;14.90;66.00;;;;;;5039537;28;19917;-62
2023/04/01 02:53:54;;;;;;;;;;;14.80;66.00;;;;;;5032862;28;19925;-60
2023/04/01 02:56:19;;;;;;;;;;;14.80;66.00;;;;;;5032729;28;19921;-60
2023/04/01 02:58:45;;;;;;;;;;;14.80;66.00;;;;;;5034396;28;19913;-60
2023/04/01 03:01:11;;;;;;;;;;;14.80;66.10;;;;;;5033584;28;19972;-60
2023/04/01 03:03:37;;;;;;;;;;;14.80;66.10;;;;;;5033960;28;19924;-60
2023/04/01 03:06:06;;;;;;;;;;;14.80;66.00;;;;;;5025014;28;19917;-60
2023/04/01 03:08:31;;;;;;;;;;;14.80;66.00;;;;;;5020827;28;20340;-60
2023/04/01 03:10:57;;;;;;;;;;;14.90;66.10;;;;;;5030236;28;19913;-60
2023/04/01 03:13:22;;;;;;;;;;;14.90;65.90;;;;;;5015815;28;19921;-61
2023/04/01 03:15:48;;;;;;;;;;;14.90;65.80;;;;;;5014250;28;19917;-60
2023/04/01 03:18:13;;;;;;;;;;;14.90;65.90;;;;;;5015654;28;19918;-60
2023/04/01 03:20:39;;;;;;;;;;;14.90;65.90;;;;;;5022363;28;19921;-60
2023/04/01 03:23:04;;;;;;;;;;;14.80;65.80;;;;;;5031810;28;19975;-60
2023/04/01 03:25:30;;;;;;;;;;;14.80;65.90;;;;;;5020736;28;19972;-60
2023/04/01 03:27:56;;;;;;;;;;;14.80;65.90;;;;;;5027514;28;20392;-60
2023/04/01 03:30:21;;;;;;;;;;;14.80;66.00;;;;;;5033929;28;20367;-60
2023/04/01 03:32:46;;;;;;;;;;;14.80;66.00;;;;;;5022763;28;20368;-60
2023/04/01 03:35:12;;;;;;;;;;;14.90;66.00;;;;;;5030101;28;20346;-60
2023/04/01 03:37:37;;;;;;;;;;;14.80;66.00;;;;;;5036933;28;20525;-60
2023/04/01 03:40:03;;;;;;;;;;;14.80;65.90;;;;;;5032023;28;19968;-60
2023/04/01 03:42:31;;;;;;;;;;;14.80;65.80;;;;;;5030854;28;20304;-60
2023/04/01 03:44:56;;;;;;;;;;;14.80;66.00;;;;;;5014138;28;21052;-60
2023/04/01 03:47:21;;;;;;;;;;;14.80;66.00;;;;;;5027195;28;20338;-64
2023/04/01 03:49:47;;;;;;;;;;;14.90;65.90;;;;;;5031382;28;19913;-59
2023/04/01 03:52:12;;;;;;;;;;;14.90;65.80;;;;;;5035891;28;20356;-60
2023/04/01 03:54:38;;;;;;;;;;;14.90;65.90;;;;;;5033607;28;20397;-59
2023/04/01 03:57:03;;;;;;;;;;;14.80;65.90;;;;;;5034004;28;19970;-60
2023/04/01 03:59:29;;;;;;;;;;;14.80;65.80;;;;;;5033603;28;19936;-59
2023/04/01 04:01:54;;;;;;;;;;;14.90;65.90;;;;;;5033126;28;19917;-60
2023/04/01 04:04:20;;;;;;;;;;;14.80;65.90;;;;;;5033896;28;19913;-63
2023/04/01 04:06:45;;;;;;;;;;;14.90;65.90;;;;;;5033713;28;19917;-60
2023/04/01 04:09:11;;;;;;;;;;;14.80;65.80;;;;;;5033450;28;20289;-61
2023/04/01 04:11:36;;;;;;;;;;;14.80;65.80;;;;;;5033555;28;20388;-60
2023/04/01 04:14:02;;;;;;;;;;;14.80;65.80;;;;;;5033612;28;19991;-60
2023/04/01 04:16:27;;;;;;;;;;;14.80;65.80;;;;;;5033577;28;19920;-60
2023/04/01 04:18:53;;;;;;;;;;;14.90;65.80;;;;;;5033244;28;19917;-60
2023/04/01 04:21:18;;;;;;;;;;;14.80;65.80;;;;;;5029647;28;20107;-60
2023/04/01 04:23:43;;;;;;;;;;;14.90;65.80;;;;;;5028245;28;20335;-60
2023/04/01 04:26:10;;;;;;;;;;;14.90;65.80;;;;;;5031807;28;20305;-60
2023/04/01 04:28:36;;;;;;;;;;;14.90;65.80;;;;;;5027300;28;20274;-60
2023/04/01 04:31:02;;;;;;;;;;;14.90;65.70;;;;;;5028799;28;19913;-60
2023/04/01 04:33:27;;;;;;;;;;;14.80;65.80;;;;;;5028457;28;19917;-60
2023/04/01 04:35:55;;;;;;;;;;;14.80;65.80;;;;;;5032849;28;19939;-60
2023/04/01 04:38:20;;;;;;;;;;;14.90;65.80;;;;;;5030342;28;20073;-60
2023/04/01 04:40:46;;;;;;;;;;;14.90;65.80;;;;;;5016862;28;19917;-60
2023/04/01 04:43:12;;;;;;;;;;;14.90;65.80;;;;;;5029385;28;19921;-60
2023/04/01 04:45:37;;;;;;;;;;;14.80;65.80;;;;;;5032958;28;19913;-67
2023/04/01 04:48:03;;;;;;;;;;;14.90;65.70;;;;;;5017364;28;20483;-60
2023/04/01 04:50:28;;;;;;;;;;;14.90;65.70;;;;;;5031957;28;19913;-60
2023/04/01 04:52:53;;;;;;;;;;;14.90;65.70;;;;;;5040074;28;20008;-61
2023/04/01 04:55:19;;;;;;;;;;;14.90;65.60;;;;;;5026326;28;20060;-60
2023/04/01 04:57:45;;;;;;;;;;;14.90;65.60;;;;;;5012547;28;19917;-61
2023/04/01 05:00:11;;;;;;;;;;;14.80;65.60;;;;;;5013261;28;19992;-61
2023/04/01 05:02:36;;;;;;;;;;;14.80;65.60;;;;;;5032421;28;19921;-60
2023/04/01 05:05:02;;;;;;;;;;;14.80;65.60;;;;;;5030924;28;19963;-60
2023/04/01 05:07:27;;;;;;;;;;;14.80;65.50;;;;;;5014291;28;19921;-60
2023/04/01 05:09:53;;;;;;;;;;;14.80;65.60;;;;;;5030945;28;19956;-61
2023/04/01 05:12:18;;;;;;;;;;;14.80;65.60;;;;;;5024073;28;19914;-62
2023/04/01 05:14:44;;;;;;;;;;;14.70;65.60;;;;;;5012601;28;19918;-60
2023/04/01 05:17:10;;;;;;;;;;;14.70;65.70;;;;;;5023065;28;19958;-60
2023/04/01 05:19:35;;;;;;;;;;;14.70;65.80;;;;;;5029589;28;19925;-60
2023/04/01 05:22:01;;;;;;;;;;;14.70;65.70;;;;;;5016360;28;19917;-60
2023/04/01 05:24:26;;;;;;;;;;;14.70;65.80;;;;;;5022355;28;19917;-60
2023/04/01 05:26:52;;;;;;;;;;;14.70;65.80;;;;;;5030632;28;19913;-60
2023/04/01 05:29:17;;;;;;;;;;;14.70;65.80;;;;;;5031901;28;19914;-60
2023/04/01 05:31:43;;;;;;;;;;;14.70;65.80;;;;;;5030330;28;20012;-60
2023/04/01 05:34:08;;;;;;;;;;;14.70;65.80;;;;;;5030551;28;20264;-60
2023/04/01 05:36:34;;;;;;;;;;;14.80;65.80;;;;;;5038925;28;19913;-62
2023/04/01 05:38:59;;;;;;;;;;;14.70;65.90;;;;;;5013576;28;20008;-60
2023/04/01 05:41:25;;;;;;;;;;;14.70;65.90;;;;;;5017673;28;19963;-60
2023/04/01 05:43:52;;;;;;;;;;;14.70;66.00;;;;;;5029593;28;21199;-60
2023/04/01 05:46:17;;;;;;;;;;;14.70;65.90;;;;;;5023005;28;19913;-60
2023/04/01 05:48:43;;;;;;;;;;;14.70;66.00;;;;;;5016392;28;19951;-60
2023/04/01 05:51:12;;;;;;;;;;;14.70;65.80;;;;;;5031528;28;20343;-63
2023/04/01 05:53:38;;;;;;;;;;;14.80;65.90;;;;;;5031635;28;19913;-60
2023/04/01 05:56:04;;;;;;;;;;;14.80;65.80;;;;;;5031640;28;19979;-60
2023/04/01 05:58:29;;;;;;;;;;;14.80;65.80;;;;;;5031537;28;19920;-62
2023/04/01 06:01:06;;;;;;;;;;;14.80;65.90;;;;;;5031338;28;19999;-61
2023/04/01 06:03:32;;;;;;;;;;;14.80;65.70;;;;;;5031707;28;19914;-60
2023/04/01 06:05:57;;;;;;;;;;;14.80;65.80;;;;;;5031548;28;19913;-60
2023/04/01 06:08:23;;;;;;;;;;;14.80;65.80;;;;;;5031335;28;19940;-59
2023/04/01 06:10:52;;;;;;;;;;;14.80;65.80;;;;;;5031101;28;19913;-60
2023/04/01 06:13:29;;;;;;;;;;;14.80;65.80;;;;;;5031259;28;19914;-60
2023/04/01 06:16:04;;;;;;;;;;;14.90;65.80;;;;;;5029087;28;19913;-61
2023/04/01 06:18:29;;;;;;;;;;;14.90;65.80;;;;;;5028164;28;20388;-60
2023/04/01 06:21:07;;;;;;;;;;;14.90;65.90;;;;;;5030762;28;19914;-59
2023/04/01 06:23:47;;;;;;;;;;;14.90;65.90;;;;;;5020452;28;19979;-60
2023/04/01 06:26:17;;;;;;;;;;;14.90;66.10;;;;;;5026664;28;19940;-60
2023/04/01 06:28:59;;;;;;;;;;;15.00;66.20;;;;;;5034052;28;19917;-60
2023/04/01 06:31:37;;;;;;;;;;;15.10;66.30;;;;;;5024298;28;20258;-60
2023/04/01 06:34:13;;;;;;;;;;;15.20;66.20;;;;;;5028933;28;19961;-59
2023/04/01 06:36:38;;;;;;;;;;;15.20;66.40;;;;;;5039118;28;20369;-62
2023/04/01 06:39:20;;;;;;;;;;;15.30;66.30;;;;;;5034839;28;19929;-60
2023/04/01 06:41:51;;;;;;;;;;;15.30;66.20;;;;;;5048945;28;20395;-62
2023/04/01 06:44:35;;;;;;;;;;;15.40;66.30;;;;;;5033219;28;20392;-60
2023/04/01 06:47:11;;;;;;;;;;;15.50;66.60;;;;;;5015450;28;20343;-62
2023/04/01 06:49:39;;;;;;;;;;;15.60;66.60;;;;;;5014993;28;19913;-60
2023/04/01 06:52:13;;;;;;;;;;;15.70;66.50;;;;;;5034320;28;19917;-60
2023/04/01 06:54:48;;;;;;;;;;;15.90;66.60;;;;;;5031997;28;20353;-60
2023/04/01 06:57:20;;;;;;;;;;;16.00;66.60;;;;;;5018349;28;19996;-60
2023/04/01 06:59:47;;;;;;;;;;;16.10;66.50;;;;;;5032282;28;19917;-59
2023/04/01 07:02:12;;;;;;;;;;;16.20;66.20;;;;;;5033550;28;20343;-60
2023/04/01 07:04:44;;;;;;;;;;;16.30;65.90;;;;;;5033219;28;20019;-60
2023/04/01 07:07:28;;;;;;;;;;;16.20;65.60;;;;;;5047899;28;19913;-60
2023/04/01 07:09:58;;;;;;;;;;;16.10;65.50;;;;;;5029639;28;20344;-60
2023/04/01 07:12:36;;;;;;;;;;;16.10;65.60;;;;;;5018019;28;19917;-59
2023/04/01 07:15:03;;;;;;;;;;;16.00;65.60;;;;;;5031607;28;19913;-59
2023/04/01 07:17:31;;;;;;;;;;;16.00;65.70;;;;;;5034419;28;19917;-59
2023/04/01 07:20:15;;;;;;;;;;;15.80;65.40;;;;;;5033975;28;19996;-60
2023/04/01 07:22:45;;;;;;;;;;;15.80;65.50;;;;;;5034282;28;20335;-60
2023/04/01 07:25:25;;;;;;;;;;;15.70;65.50;;;;;;5034243;28;19945;-60
2023/04/01 07:27:52;;;;;;;;;;;15.70;65.70;;;;;;5034189;28;19917;-59
2023/04/01 07:30:19;;;;;;;;;;;15.70;65.80;;;;;;5034258;28;19913;-59
2023/04/01 07:32:52;;;;;;;;;;;15.60;65.70;;;;;;5033816;28;19924;-60
2023/04/01 07:35:24;;;;;;;;;;;15.60;65.70;;;;;;5041309;28;19959;-59
2023/04/01 07:38:08;;;;;;;;;;;15.60;66.00;;;;;;5052851;28;20417;-59
2023/04/01 07:40:34;;;;;;;;;;;15.60;65.70;;;;;;5054280;28;19916;-59
2023/04/01 07:43:09;;;;;;;;;;;15.50;65.60;;;;;;5053619;28;20330;-61
2023/04/01 07:45:50;;;;;;;;;;;15.50;65.60;;;;;;5054154;28;19979;-65
2023/04/01 07:48:25;;;;;;;;;;;15.50;65.80;;;;;;5053880;28;20339;-60
2023/04/01 07:50:54;;;;;;;;;;;15.60;66.00;;;;;;5050384;28;19913;-59
2023/04/01 07:53:26;;;;;;;;;;;15.60;66.00;;;;;;5033678;28;19913;-59
2023/04/01 07:55:54;;;;;;;;;;;15.60;66.00;;;;;;5033721;28;20351;-59
2023/04/01 07:58:29;;;;;;;;;;;15.70;66.10;;;;;;5033656;28;19913;-59
2023/04/01 08:01:03;;;;;;;;;;;15.70;66.20;;;;;;5033560;28;19913;-59
2023/04/01 08:03:29;;;;;;;;;;;15.70;65.90;;;;;;5033524;28;19921;-59
2023/04/01 08:05:56;;;;;;;;;;;15.70;66.10;;;;;;5033528;28;19913;-59
2023/04/01 08:08:41;;;;;;;;;;;15.70;66.20;;;;;;5033280;28;19913;-59
2023/04/01 08:11:09;;;;;;;;;;;15.80;66.20;;;;;;5033572;28;19917;-60
2023/04/01 08:13:39;;;;;;;;;;;15.80;66.20;;;;;;5033527;28;20352;-60
2023/04/01 08:16:04;;;;;;;;;;;15.80;66.20;;;;;;5033652;28;19948;-59
2023/04/01 08:18:49;;;;;;;;;;;15.90;66.30;;;;;;5033157;28;19994;-60
2023/04/01 08:21:20;;;;;;;;;;;16.00;66.60;;;;;;5033516;28;19963;-61
2023/04/01 08:23:47;;;;;;;;;;;16.00;66.50;;;;;;5033566;28;19913;-59
2023/04/01 08:26:12;;;;;;;;;;;16.10;66.40;;;;;;5033693;28;19956;-59
2023/04/01 08:28:46;;;;;;;;;;;16.20;66.50;;;;;;5033126;28;20399;-59
2023/04/01 08:31:31;;;;;;;;;;;16.30;66.50;;;;;;5033363;28;19936;-63
2023/04/01 08:33:56;;;;;;;;;;;16.40;66.60;;;;;;5033033;28;20331;-59
2023/04/01 08:36:28;;;;;;;;;;;16.50;66.60;;;;;;5049413;28;19916;-59
2023/04/01 08:38:55;;;;;;;;;;;16.60;66.50;;;;;;5052671;28;19921;-59
2023/04/01 08:41:27;;;;;;;;;;;16.70;66.40;;;;;;5053080;28;19920;-59
2023/04/01 08:44:02;;;;;;;;;;;16.80;66.50;;;;;;5040377;28;20365;-59
2023/04/01 08:46:30;;;;;;;;;;;16.80;66.60;;;;;;5027411;28;19913;-59
2023/04/01 08:49:06;;;;;;;;;;;17.00;67.00;;;;;;5023841;28;19928;-59
2023/04/01 08:51:51;;;;;;;;;;;17.20;67.20;;;;;;5014159;28;19913;-59
2023/04/01 08:54:34;;;;;;;;;;;17.40;66.80;;;;;;5025817;28;19948;-61
2023/04/01 08:57:11;;;;;;;;;;;17.50;67.20;;;;;;5032968;28;20019;-59
2023/04/01 08:59:46;;;;;;;;;;;17.70;67.30;;;;;;5032454;28;19962;-59
2023/04/01 09:02:30;;;;;;;;;;;17.80;67.10;;;;;;5040425;28;19936;-59
2023/04/01 09:05:02;;;;;;;;;;;18.00;67.40;;;;;;5032536;28;19913;-59
2023/04/01 09:07:42;;;;;;;;;;;18.10;67.10;;;;;;5032452;28;20288;-59
2023/04/01 09:10:08;;;;;;;;;;;18.20;66.80;;;;;;5042966;28;19913;-59
2023/04/01 09:12:45;;;;;;;;;;;18.20;66.20;;;;;;5033798;28;19917;-59
2023/04/01 09:15:17;;;;;;;;;;;18.30;66.30;;;;;;5032176;28;19909;-59
2023/04/01 09:18:01;;;;;;;;;;;18.40;66.30;;;;;;5030215;28;20024;-59
2023/04/01 09:20:29;;;;;;;;;;;18.50;66.00;;;;;;5031528;28;19959;-59
2023/04/01 09:23:13;;;;;;;;;;;18.70;66.60;;;;;;5026409;28;20016;-59
2023/04/01 09:25:56;;;;;;;;;;;18.90;66.80;;;;;;5027126;28;20269;-59
2023/04/01 09:28:22;;;;;;;;;;;19.20;67.50;;;;;;5025351;28;19917;-59
2023/04/01 09:31:00;;;;;;;;;;;19.60;67.40;;;;;;5032062;28;19917;-59
2023/04/01 09:33:38;;;;;;;;;;;19.90;67.20;;;;;;5022071;28;19924;-59
2023/04/01 09:36:12;;;;;;;;;;;20.30;66.80;;;;;;5039567;28;19969;-62
2023/04/01 09:38:47;;;;;;;;;;;20.50;66.00;;;;;;5030010;28;19925;-63
2023/04/01 09:41:32;;;;;;;;;;;20.70;66.40;;;;;;5017389;28;19917;-60
2023/04/01 09:44:01;;;;;;;;;;;21.00;66.60;;;;;;5024018;28;20357;-59
2023/04/01 09:46:45;;;;;;;;;;;21.30;66.10;;;;;;5029298;28;19913;-59
2023/04/01 09:49:13;;;;;;;;;;;21.30;65.50;;;;;;5024233;28;19917;-60
2023/04/01 09:51:57;;;;;;;;;;;21.20;64.60;;;;;;5012147;28;20353;-59
2023/04/01 09:54:46;;;;;;;;;;;21.20;64.50;;;;;;5019371;28;19917;-59
2023/04/01 09:57:27;;;;;;;;;;;21.10;64.60;;;;;;5029996;28;19914;-59
2023/04/01 09:59:54;;;;;;;;;;;21.20;64.90;;;;;;5020089;28;19959;-59
2023/04/01 10:02:40;;;;;;;;;;;21.20;64.90;;;;;;5016484;28;19925;-59
2023/04/01 10:05:20;;;;;;;;;;;21.20;64.30;;;;;;5015577;28;19921;-59
2023/04/01 10:08:05;;;;;;;;;;;21.10;63.70;;;;;;5027956;28;19917;-59
2023/04/01 10:10:49;;;;;;;;;;;21.00;64.00;;;;;;5025540;28;19921;-59
2023/04/01 10:13:27;;;;;;;;;;;20.90;63.80;;;;;;5011539;28;19913;-59
2023/04/01 10:16:16;;;;;;;;;;;20.70;63.80;;;;;;5028727;28;19913;-59
2023/04/01 10:19:00;;;;;;;;;;;20.50;63.80;;;;;;5029858;28;19913;-59
2023/04/01 10:21:37;;;;;;;;;;;20.20;64.00;;;;;;5012042;28;20277;-59
2023/04/01 10:24:16;;;;;;;;;;;20.00;64.30;;;;;;5009804;28;19926;-60
2023/04/01 10:26:57;;;;;;;;;;;19.80;64.80;;;;;;5011971;28;20207;-60
2023/04/01 10:29:42;;;;;;;;;;;19.60;64.60;;;;;;5027033;28;20365;-59
2023/04/01 10:32:26;;;;;;;;;;;19.30;64.50;;;;;;5031516;28;20254;-60
2023/04/01 10:34:57;;;;;;;;;;;19.00;64.20;;;;;;5018469;28;19917;-60
2023/04/01 10:37:28;;;;;;;;;;;18.90;64.90;;;;;;5011354;28;19922;-59
2023/04/01 10:40:12;;;;;;;;;;;18.90;65.60;;;;;;5026752;28;20071;-59
2023/04/01 10:42:56;;;;;;;;;;;18.90;66.20;;;;;;5013366;28;20008;-59
2023/04/01 10:45:34;;;;;;;;;;;19.10;67.00;;;;;;5027097;28;19928;-60
2023/04/01 10:48:18;;;;;;;;;;;19.30;66.80;;;;;;5011625;28;19920;-60
2023/04/01 10:51:09;;;;;;;;;;;19.60;66.50;;;;;;5014475;28;19917;-59
2023/04/01 10:53:45;;;;;;;;;;;19.70;65.90;;;;;;5011393;28;20420;-59
2023/04/01 10:56:33;;;;;;;;;;;19.80;65.70;;;;;;5011286;28;19968;-59
2023/04/01 10:59:21;;;;;;;;;;;20.00;65.90;;;;;;5013229;28;20009;-59
2023/04/01 11:02:07;;;;;;;;;;;20.30;66.10;;;;;;5009951;28;19918;-59
2023/04/01 11:04:51;;;;;;;;;;;20.40;65.90;;;;;;5017697;28;19917;-60
2023/04/01 11:07:35;;;;;;;;;;;20.50;65.90;;;;;;5031315;28;19917;-60
2023/04/01 11:10:19;;;;;;;;;;;20.60;65.50;;;;;;5029613;28;20004;-59
2023/04/01 11:13:03;;;;;;;;;;;20.70;65.20;;;;;;5035595;28;19925;-59
2023/04/01 11:15:28;;;;;;;;;;;20.70;65.00;;;;;;5032992;28;20326;-59
2023/04/01 11:18:12;;;;;;;;;;;20.70;63.90;;;;;;5030755;28;19940;-59
2023/04/01 11:20:38;;;;;;;;;;;20.50;63.20;;;;;;5031703;28;20426;-59
2023/04/01 11:23:13;;;;;;;;;;;20.30;63.60;;;;;;5033995;28;19921;-58
2023/04/01 11:25:45;;;;;;;;;;;20.20;63.90;;;;;;5035398;28;19913;-58
2023/04/01 11:28:16;;;;;;;;;;;20.00;64.00;;;;;;5033259;28;20012;-59
2023/04/01 11:30:58;;;;;;;;;;;19.80;64.40;;;;;;5032997;28;20351;-58
2023/04/01 11:33:38;;;;;;;;;;;19.70;65.10;;;;;;5032770;28;19917;-60
2023/04/01 11:36:10;;;;;;;;;;;19.70;65.10;;;;;;5032121;28;19928;-59
2023/04/01 11:38:53;;;;;;;;;;;19.70;65.50;;;;;;5031510;28;19975;-60
2023/04/01 11:41:30;;;;;;;;;;;19.70;65.70;;;;;;5032959;28;19957;-59
2023/04/01 11:43:55;;;;;;;;;;;19.80;66.10;;;;;;5030681;28;19917;-59
2023/04/01 11:46:26;;;;;;;;;;;19.80;66.00;;;;;;5037814;28;19914;-59
2023/04/01 11:49:06;;;;;;;;;;;19.80;66.00;;;;;;5046681;28;19935;-59
2023/04/01 11:52:10;;;;;;;;;;;19.90;65.50;;;;;;5014535;28;19921;-59
2023/04/01 11:54:41;;;;;;;;;;;19.80;65.30;;;;;;5000532;28;19975;-59
2023/04/01 11:57:24;;;;;;;;;;;19.90;66.10;;;;;;5011827;28;19914;-59
2023/04/01 11:59:59;;;;;;;;;;;20.00;66.20;;;;;;5018488;28;20456;-60
2023/04/01 12:02:43;;;;;;;;;;;20.30;66.30;;;;;;5031658;28;19967;-61
2023/04/01 12:05:19;;;;;;;;;;;20.30;65.80;;;;;;5029451;28;19920;-59
2023/04/01 12:08:02;;;;;;;;;;;20.40;65.90;;;;;;5030271;28;20279;-60
2023/04/01 12:10:28;;;;;;;;;;;20.70;66.50;;;;;;5029178;28;20364;-60
2023/04/01 12:12:55;;;;;;;;;;;20.90;65.70;;;;;;5032804;28;19914;-60
2023/04/01 12:15:33;;;;;;;;;;;21.00;65.70;;;;;;5034497;28;19917;-60
2023/04/01 12:18:14;;;;;;;;;;;21.10;65.40;;;;;;5032657;28;19917;-59
2023/04/01 12:20:53;;;;;;;;;;;21.20;65.60;;;;;;5031408;28;19920;-60
2023/04/01 12:23:29;;;;;;;;;;;21.30;65.40;;;;;;5032006;28;20020;-60
2023/04/01 12:26:13;;;;;;;;;;;21.30;65.40;;;;;;5032405;28;20328;-60
2023/04/01 12:28:57;;;;;;;;;;;21.40;65.20;;;;;;5030848;28;20320;-60
2023/04/01 12:31:42;;;;;;;;;;;21.50;64.80;;;;;;5032320;28;20007;-60
2023/04/01 12:34:07;;;;;;;;;;;21.50;64.30;;;;;;5030290;28;19917;-60
2023/04/01 12:36:53;;;;;;;;;;;21.50;64.30;;;;;;5033632;28;20248;-60
2023/04/01 12:39:39;;;;;;;;;;;21.60;64.80;;;;;;5029006;28;19933;-60
2023/04/01 12:42:12;;;;;;;;;;;21.80;64.90;;;;;;5027709;28;19928;-60
2023/04/01 12:44:37;;;;;;;;;;;21.80;65.10;;;;;;5032304;28;19959;-60
2023/04/01 12:47:21;;;;;;;;;;;21.80;65.90;;;;;;5031481;28;20376;-59
2023/04/01 12:49:50;;;;;;;;;;;22.10;65.50;;;;;;5029743;28;19959;-59
2023/04/01 12:52:25;;;;;;;;;;;22.20;64.90;;;;;;5031136;28;20012;-59
2023/04/01 12:55:07;;;;;;;;;;;22.20;64.50;;;;;;5029804;28;20358;-59
2023/04/01 12:57:48;;;;;;;;;;;22.20;64.00;;;;;;5026493;28;19921;-60
2023/04/01 13:00:32;;;;;;;;;;;22.20;64.10;;;;;;5019587;28;19971;-59
2023/04/01 13:03:00;;;;;;;;;;;22.10;63.60;;;;;;5030204;28;19928;-60
2023/04/01 13:05:37;;;;;;;;;;;22.00;63.80;;;;;;5029423;28;19914;-59
2023/04/01 13:08:05;;;;;;;;;;;21.80;64.00;;;;;;5019007;28;19917;-59
2023/04/01 13:10:41;;;;;;;;;;;21.70;64.10;;;;;;5030736;28;19919;-59
2023/04/01 13:13:10;;;;;;;;;;;21.60;64.10;;;;;;5027450;28;20372;-59
2023/04/01 13:15:54;;;;;;;;;;;21.40;63.60;;;;;;5032037;28;20329;-59
2023/04/01 13:18:24;;;;;;;;;;;21.20;64.20;;;;;;5029365;28;20238;-59
2023/04/01 13:21:00;;;;;;;;;;;21.10;64.70;;;;;;5031217;28;19917;-59
2023/04/01 13:23:25;;;;;;;;;;;21.00;64.10;;;;;;5027145;28;19925;-59
2023/04/01 13:25:58;;;;;;;;;;;20.90;64.40;;;;;;5032227;28;19966;-59
2023/04/01 13:28:28;;;;;;;;;;;20.80;63.70;;;;;;5018427;28;19932;-59
2023/04/01 13:31:01;;;;;;;;;;;20.70;64.40;;;;;;5030998;28;19917;-59
2023/04/01 13:33:32;;;;;;;;;;;20.70;64.30;;;;;;5028780;28;19917;-59
2023/04/01 13:36:07;;;;;;;;;;;20.60;64.10;;;;;;5034927;28;19920;-61
2023/04/01 13:38:35;;;;;;;;;;;20.50;64.60;;;;;;5029859;28;20395;-60
2023/04/01 13:41:07;;;;;;;;;;;20.40;64.70;;;;;;5043433;28;19913;-59
2023/04/01 13:43:39;;;;;;;;;;;20.40;64.60;;;;;;5020568;28;19922;-60
2023/04/01 13:46:10;;;;;;;;;;;20.30;64.30;;;;;;5011604;28;20390;-61
2023/04/01 13:48:48;;;;;;;;;;;20.30;64.60;;;;;;5020170;28;19956;-60
2023/04/01 13:51:20;;;;;;;;;;;20.30;65.00;;;;;;5016279;28;19918;-60
2023/04/01 13:53:51;;;;;;;;;;;20.20;64.50;;;;;;5017333;28;19924;-61
2023/04/01 13:56:33;;;;;;;;;;;20.20;64.30;;;;;;5017211;28;19917;-64
2023/04/01 13:59:04;;;;;;;;;;;20.10;64.50;;;;;;5012015;28;19960;-61
2023/04/01 14:01:39;;;;;;;;;;;20.10;64.40;;;;;;5011540;28;19924;-60
2023/04/01 14:04:13;;;;;;;;;;;20.00;64.20;;;;;;5011897;28;19925;-60
2023/04/01 14:06:57;;;;;;;;;;;19.90;64.80;;;;;;5021225;28;20267;-60
2023/04/01 14:09:41;;;;;;;;;;;19.80;64.90;;;;;;5012512;28;19925;-59
2023/04/01 14:12:11;;;;;;;;;;;19.80;65.70;;;;;;5012644;28;19914;-60
2023/04/01 14:15:00;;;;;;;;;;;19.80;65.60;;;;;;5011809;28;20258;-60
2023/04/01 14:17:46;;;;;;;;;;;19.70;65.90;;;;;;5024241;28;19917;-59
2023/04/01 14:20:24;;;;;;;;;;;19.70;65.40;;;;;;5031499;28;19915;-59
2023/04/01 14:23:08;;;;;;;;;;;19.50;65.20;;;;;;5013725;28;19929;-60
2023/04/01 14:25:33;;;;;;;;;;;19.40;65.00;;;;;;5011928;28;19999;-62
2023/04/01 14:28:03;;;;;;;;;;;19.20;65.50;;;;;;5011637;28;19957;-60
2023/04/01 14:30:38;;;;;;;;;;;19.20;65.90;;;;;;5021706;28;19913;-69
2023/04/01 14:33:07;;;;;;;;;;;19.20;66.40;;;;;;5031164;28;19921;-60
2023/04/01 14:35:38;;;;;;;;;;;19.20;66.40;;;;;;5040322;28;19913;-59
2023/04/01 14:38:19;;;;;;;;;;;19.20;66.60;;;;;;5020530;28;19929;-60
2023/04/01 14:40:51;;;;;;;;;;;19.20;66.70;;;;;;5031300;28;20273;-60
2023/04/01 14:43:16;;;;;;;;;;;19.10;66.10;;;;;;5038841;28;20324;-60